Terminal Aerodrome Forecast
Issued by NWS Portland, ME

Home | Current Version | Previous Version | Text Only | Print | Product List | Glossary On
Versions: 1 2 3 4 5 6 7 8 9 10 11 12 13 14 15 16 17 18 19 20 21 22 23 24
000
FTUS41 KGYX 220034 RRA
TAFPWM
TAF
KPWM 220034Z 2201/2224 36004KT P6SM SCT045 OVC070
     FM220200 01004KT P6SM BKN045 OVC060
     FM221800 04004KT P6SM BKN025 OVC040=

USA.gov is the U.S. government's official web portal to all federal, state and local government web resources and services.